createdAt,value
2022-12-16T00:00:20.196Z,15.75
2022-12-16T00:02:49.142Z,12.93
2022-12-16T00:05:20.059Z,11.75
2022-12-16T00:07:51.394Z,14.13
2022-12-16T00:10:19.808Z,12.63
2022-12-16T00:12:47.573Z,11.63
2022-12-16T00:15:15.793Z,13.25
2022-12-16T00:17:43.798Z,17.65
2022-12-16T00:20:12.994Z,13.27
2022-12-16T00:22:40.778Z,9.52
2022-12-16T00:25:08.947Z,9.70
2022-12-16T00:27:37.108Z,8.80
2022-12-16T00:30:06.066Z,9.32
2022-12-16T00:32:34.209Z,9.90
2022-12-16T00:35:02.170Z,10.90
2022-12-16T00:37:29.767Z,10.40
2022-12-16T00:39:57.369Z,10.43
2022-12-16T00:42:25.085Z,10.80
2022-12-16T00:44:53.119Z,11.23
2022-12-16T00:47:22.569Z,10.25
2022-12-16T00:49:50.047Z,13.25
2022-12-16T00:52:17.501Z,9.15
2022-12-16T00:54:45.042Z,11.23
2022-12-16T00:57:13.067Z,8.73
2022-12-16T00:59:40.952Z,8.13
2022-12-16T01:02:11.148Z,10.02
2022-12-16T01:04:38.939Z,8.20
2022-12-16T01:07:06.433Z,8.57
2022-12-16T01:09:34.556Z,10.93
2022-12-16T01:12:02.366Z,8.52
2022-12-16T01:14:29.892Z,8.63
2022-12-16T01:16:57.553Z,8.55
2022-12-16T01:19:25.235Z,10.98
2022-12-16T01:21:52.802Z,13.63
2022-12-16T01:24:21.154Z,14.27
2022-12-16T01:26:49.537Z,6.78
2022-12-16T01:29:19.279Z,9.00
2022-12-16T01:31:46.963Z,9.90
2022-12-16T01:34:14.575Z,10.77
2022-12-16T01:36:42.670Z,11.13
2022-12-16T01:39:11.103Z,8.55
2022-12-16T01:41:39.206Z,8.70
2022-12-16T01:44:17.977Z,9.30
2022-12-16T01:47:19.563Z,6.95
2022-12-16T01:49:56.227Z,6.72
2022-12-16T01:52:30.799Z,7.05
2022-12-16T01:55:07.347Z,10.25
2022-12-16T01:57:49.121Z,8.20
2022-12-16T02:00:17.599Z,8.07
2022-12-16T02:02:46.976Z,10.77
2022-12-16T02:05:23.237Z,12.95
2022-12-16T02:08:15.041Z,10.30
2022-12-16T02:10:42.959Z,12.05
2022-12-16T02:13:32.343Z,11.00
2022-12-16T02:16:17.234Z,10.63
2022-12-16T02:18:57.974Z,16.90
2022-12-16T02:21:48.884Z,17.58
2022-12-16T02:25:09.045Z,11.65
2022-12-16T02:28:01.096Z,13.02
2022-12-16T02:30:56.809Z,13.32
2022-12-16T02:34:02.066Z,13.45
2022-12-16T02:36:48.417Z,14.80
2022-12-16T02:39:36.340Z,14.65
2022-12-16T02:42:42.361Z,11.15
2022-12-16T02:45:19.994Z,10.98
2022-12-16T02:47:48.239Z,16.23
2022-12-16T02:50:21.725Z,16.73
2022-12-16T02:52:50.775Z,12.75
2022-12-16T02:55:19.886Z,12.93
2022-12-16T02:58:15.512Z,12.88
2022-12-16T03:01:15.500Z,18.92
2022-12-16T03:04:03.461Z,14.95
2022-12-16T03:06:33.829Z,19.83
2022-12-16T03:09:07.499Z,18.23
2022-12-16T03:11:37.577Z,14.63
2022-12-16T03:14:11.053Z,14.25
2022-12-16T03:16:39.225Z,16.27
2022-12-16T03:19:11.794Z,15.57
2022-12-16T03:21:49.802Z,15.95
2022-12-16T03:24:17.777Z,15.77
2022-12-16T03:26:58.487Z,15.70
2022-12-16T03:29:38.979Z,12.35
2022-12-16T03:32:18.792Z,13.27
2022-12-16T03:34:56.271Z,14.30
2022-12-16T03:37:29.394Z,14.88
2022-12-16T03:40:00.571Z,18.02
2022-12-16T03:42:28.721Z,14.25
2022-12-16T03:44:57.241Z,11.32
2022-12-16T03:47:29.995Z,14.95
2022-12-16T03:49:58.395Z,13.63
2022-12-16T03:52:25.934Z,12.23
2022-12-16T03:54:53.515Z,13.65
2022-12-16T03:57:21.595Z,14.02
2022-12-16T03:59:49.107Z,14.50
2022-12-16T04:02:16.760Z,16.10
2022-12-16T04:04:44.517Z,13.77
2022-12-16T04:07:20.996Z,13.80
2022-12-16T04:09:51.780Z,15.77
2022-12-16T04:12:39.374Z,12.75
2022-12-16T04:15:26.643Z,15.88
2022-12-16T04:18:12.924Z,11.57
2022-12-16T04:21:03.666Z,17.13
2022-12-16T04:23:53.359Z,17.10
2022-12-16T04:26:22.077Z,17.38
2022-12-16T04:28:50.174Z,15.35
2022-12-16T04:31:18.244Z,13.40
2022-12-16T04:34:04.517Z,14.13
2022-12-16T04:36:51.194Z,14.85
2022-12-16T04:39:37.927Z,17.85
2022-12-16T04:42:23.936Z,18.40
2022-12-16T04:45:10.565Z,15.05
2022-12-16T04:47:57.606Z,21.65
2022-12-16T04:50:44.148Z,20.20
2022-12-16T04:53:30.777Z,20.92
2022-12-16T04:56:17.493Z,25.55
2022-12-16T04:59:03.827Z,26.02
2022-12-16T05:01:50.302Z,29.08
2022-12-16T05:04:36.670Z,21.00
2022-12-16T05:07:23.475Z,22.83
2022-12-16T05:10:10.156Z,23.52
2022-12-16T05:12:56.453Z,23.75
2022-12-16T05:15:42.791Z,24.33
2022-12-16T05:18:33.534Z,26.45
2022-12-16T05:21:20.966Z,24.55
2022-12-16T05:24:07.303Z,24.63
2022-12-16T05:27:10.807Z,21.88
2022-12-16T05:29:57.406Z,22.00
2022-12-16T05:32:43.876Z,21.40
2022-12-16T05:35:31.712Z,20.88
2022-12-16T05:38:18.253Z,21.65
2022-12-16T05:41:21.149Z,25.33
2022-12-16T05:44:07.321Z,24.27
2022-12-16T05:46:53.550Z,26.27
2022-12-16T05:49:40.312Z,26.38
2022-12-16T05:52:26.647Z,24.92
2022-12-16T05:55:12.771Z,29.85
2022-12-16T05:57:59.463Z,32.60
2022-12-16T06:00:46.076Z,29.88
2022-12-16T06:03:33.181Z,28.88
2022-12-16T06:06:19.610Z,28.63
2022-12-16T06:09:05.918Z,36.60
2022-12-16T06:11:52.547Z,38.67
2022-12-16T06:14:39.327Z,35.47
2022-12-16T06:17:25.197Z,38.67
2022-12-16T06:20:11.257Z,32.80
2022-12-16T06:22:58.154Z,33.45
2022-12-16T06:25:44.115Z,38.25
2022-12-16T06:28:30.433Z,40.75
2022-12-16T06:31:16.926Z,39.28
2022-12-16T06:34:03.159Z,39.35
2022-12-16T06:36:49.930Z,45.05
2022-12-16T06:39:35.937Z,39.28
2022-12-16T06:42:21.875Z,49.03
2022-12-16T06:45:08.168Z,50.22
2022-12-16T06:47:54.114Z,43.05
2022-12-16T06:50:44.811Z,46.38
2022-12-16T06:53:31.915Z,49.05
2022-12-16T06:56:18.584Z,47.38
2022-12-16T06:59:04.702Z,49.67
2022-12-16T07:01:51.729Z,55.75
2022-12-16T07:04:39.588Z,49.20
2022-12-16T07:07:25.680Z,45.50
2022-12-16T07:10:12.256Z,39.28
2022-12-16T07:12:58.294Z,46.53
2022-12-16T07:15:44.366Z,41.25
2022-12-16T07:18:30.537Z,43.17
2022-12-16T07:21:16.985Z,43.03
2022-12-16T07:24:03.443Z,37.30
2022-12-16T07:26:49.665Z,44.28
2022-12-16T07:29:36.738Z,44.75
2022-12-16T07:32:23.688Z,37.65
2022-12-16T07:35:10.436Z,40.30
2022-12-16T07:37:58.106Z,43.35
2022-12-16T07:40:45.232Z,42.33
2022-12-16T07:43:31.690Z,43.78
2022-12-16T07:46:18.888Z,41.60
2022-12-16T07:49:04.947Z,43.25
2022-12-16T07:51:51.248Z,45.30
2022-12-16T07:54:51.430Z,42.67
2022-12-16T07:57:37.672Z,40.15
2022-12-16T08:00:24.117Z,42.90
2022-12-16T08:03:14.220Z,40.70
2022-12-16T08:06:00.548Z,41.42
2022-12-16T08:08:47.242Z,46.83
2022-12-16T08:11:33.259Z,38.30
2022-12-16T08:14:20.006Z,38.70
2022-12-16T08:17:06.165Z,37.90
2022-12-16T08:19:52.417Z,39.58
2022-12-16T08:22:40.761Z,48.13
2022-12-16T08:25:26.878Z,50.35
2022-12-16T08:28:14.902Z,50.38
2022-12-16T08:31:01.445Z,50.22
2022-12-16T08:33:48.021Z,43.85
2022-12-16T08:36:34.385Z,45.95
2022-12-16T08:39:21.224Z,47.75
2022-12-16T08:42:07.290Z,47.88
2022-12-16T08:44:53.193Z,48.40
2022-12-16T08:47:39.431Z,48.55
2022-12-16T08:50:26.224Z,44.28
2022-12-16T08:53:13.069Z,46.42
2022-12-16T08:56:00.304Z,47.72
2022-12-16T08:58:46.996Z,48.55
2022-12-16T09:01:33.848Z,43.03
2022-12-16T09:04:20.686Z,42.67
2022-12-16T09:07:07.403Z,34.83
2022-12-16T09:09:53.402Z,36.28
2022-12-16T09:12:40.637Z,40.67
2022-12-16T09:15:27.265Z,34.35
2022-12-16T09:18:15.322Z,41.38
2022-12-16T09:21:01.382Z,40.40
2022-12-16T09:24:01.070Z,38.08
2022-12-16T09:26:48.144Z,32.50
2022-12-16T09:29:34.178Z,32.35
2022-12-16T09:32:20.943Z,36.33
2022-12-16T09:35:13.299Z,31.88
2022-12-16T09:38:05.383Z,36.88
2022-12-16T09:40:52.575Z,32.03
2022-12-16T09:44:21.845Z,31.42
2022-12-16T09:47:22.517Z,34.53
2022-12-16T09:50:13.042Z,24.85
2022-12-16T09:53:10.780Z,25.95
2022-12-16T09:56:00.009Z,23.45
2022-12-16T09:58:52.075Z,24.35
2022-12-16T10:01:40.957Z,31.23
2022-12-16T10:04:27.752Z,25.90
2022-12-16T10:07:19.429Z,26.65
2022-12-16T10:10:27.451Z,22.88
2022-12-16T10:13:25.279Z,24.25
2022-12-16T10:16:20.651Z,23.92
2022-12-16T10:19:31.819Z,22.20
2022-12-16T10:22:40.045Z,18.92
2022-12-16T10:25:30.597Z,20.85
2022-12-16T10:28:36.042Z,20.00
2022-12-16T10:31:31.779Z,19.60
2022-12-16T10:34:18.784Z,19.30
2022-12-16T10:37:11.632Z,19.92
2022-12-16T10:40:03.574Z,19.88
2022-12-16T10:42:55.992Z,21.52
2022-12-16T10:45:57.177Z,17.35
2022-12-16T10:48:56.312Z,21.50
2022-12-16T10:51:47.490Z,22.65
2022-12-16T10:54:40.060Z,27.80
2022-12-16T10:57:57.085Z,25.30
2022-12-16T11:01:00.742Z,22.45
2022-12-16T11:03:50.213Z,26.10
2022-12-16T11:06:45.516Z,23.58
2022-12-16T11:10:00.741Z,23.38
2022-12-16T11:12:51.107Z,22.98
2022-12-16T11:15:41.959Z,30.42
2022-12-16T11:18:40.386Z,27.13
2022-12-16T11:21:32.793Z,32.17
2022-12-16T11:24:25.106Z,31.35
2022-12-16T11:27:17.336Z,29.05
2022-12-16T11:30:17.176Z,39.20
2022-12-16T11:33:10.894Z,31.70
2022-12-16T11:36:02.141Z,32.50
2022-12-16T11:39:00.337Z,33.83
2022-12-16T11:41:54.002Z,33.28
2022-12-16T11:44:47.728Z,29.77
2022-12-16T11:48:00.377Z,27.30
2022-12-16T11:51:09.790Z,25.00
2022-12-16T11:54:19.725Z,26.73
2022-12-16T11:57:08.647Z,26.75
2022-12-16T12:00:00.379Z,26.83
2022-12-16T12:03:18.375Z,29.15
2022-12-16T12:06:43.472Z,29.30
2022-12-16T12:09:39.970Z,31.33
2022-12-16T12:12:33.505Z,28.38
2022-12-16T12:15:25.575Z,31.95
2022-12-16T12:18:27.467Z,24.58
2022-12-16T12:21:37.923Z,38.38
2022-12-16T12:24:33.395Z,30.13
2022-12-16T12:27:25.644Z,34.78
2022-12-16T12:30:39.704Z,25.63
2022-12-16T12:33:58.219Z,24.40
2022-12-16T12:36:56.259Z,31.23
2022-12-16T12:39:55.378Z,27.77
2022-12-16T12:43:13.461Z,23.30
2022-12-16T12:46:44.504Z,26.75
2022-12-16T12:49:51.427Z,25.98
2022-12-16T12:52:50.894Z,24.33
2022-12-16T12:55:42.730Z,25.88
2022-12-16T12:58:29.544Z,19.98
2022-12-16T13:01:17.376Z,22.95
2022-12-16T13:04:13.441Z,23.02
2022-12-16T13:07:00.277Z,26.70
2022-12-16T13:09:56.575Z,26.30
2022-12-16T13:12:49.041Z,27.83
2022-12-16T13:16:08.861Z,22.52
2022-12-16T13:18:55.763Z,25.05
2022-12-16T13:21:54.821Z,19.55
2022-12-16T13:24:46.077Z,21.73
2022-12-16T13:27:35.101Z,20.17
2022-12-16T13:30:31.488Z,20.95
2022-12-16T13:33:39.943Z,22.50
2022-12-16T13:36:26.602Z,26.85
2022-12-16T13:39:18.837Z,24.10
2022-12-16T13:42:08.899Z,26.42
2022-12-16T13:45:01.667Z,23.15
2022-12-16T13:47:53.690Z,25.45
2022-12-16T13:51:00.695Z,28.67
2022-12-16T13:53:50.041Z,28.50
2022-12-16T13:56:45.141Z,27.58
2022-12-16T13:59:51.242Z,25.25
2022-12-16T14:02:51.370Z,28.70
2022-12-16T14:05:48.062Z,25.33
2022-12-16T14:08:38.529Z,29.52
2022-12-16T14:11:39.428Z,28.00
2022-12-16T14:14:41.595Z,27.42
2022-12-16T14:17:45.654Z,35.20
2022-12-16T14:20:49.228Z,28.80
2022-12-16T14:24:00.588Z,34.75
2022-12-16T14:26:47.702Z,32.42
2022-12-16T14:29:54.924Z,33.72
2022-12-16T14:32:53.541Z,32.03
2022-12-16T14:35:45.070Z,32.80
2022-12-16T14:38:44.426Z,34.38
2022-12-16T14:41:38.255Z,30.15
2022-12-16T14:44:37.384Z,38.70
2022-12-16T14:47:23.781Z,41.42
2022-12-16T14:50:13.202Z,33.55
2022-12-16T14:52:59.248Z,35.20
2022-12-16T14:55:53.889Z,36.95
2022-12-16T14:58:42.625Z,38.10
2022-12-16T15:01:32.276Z,37.72
2022-12-16T15:04:24.114Z,32.63
2022-12-16T15:07:13.728Z,38.78
2022-12-16T15:10:06.160Z,36.65
2022-12-16T15:13:00.022Z,37.08
2022-12-16T15:16:06.115Z,42.88
2022-12-16T15:19:04.235Z,38.03
2022-12-16T15:21:53.934Z,47.13
2022-12-16T15:24:45.131Z,34.28
2022-12-16T15:28:02.781Z,39.78
2022-12-16T15:30:58.680Z,36.75
2022-12-16T15:33:49.703Z,41.58
2022-12-16T15:36:51.477Z,42.45
2022-12-16T15:39:37.795Z,38.28
2022-12-16T15:42:25.345Z,35.28
2022-12-16T15:45:11.585Z,37.10
2022-12-16T15:47:57.579Z,39.42
2022-12-16T15:50:46.793Z,39.40
2022-12-16T15:53:49.191Z,39.88
2022-12-16T15:56:52.313Z,51.17
2022-12-16T15:59:44.237Z,40.03
2022-12-16T16:02:45.514Z,41.55
2022-12-16T16:05:37.293Z,36.65
2022-12-16T16:08:24.596Z,44.47
2022-12-16T16:11:13.635Z,43.92
2022-12-16T16:14:07.241Z,39.25
2022-12-16T16:16:57.301Z,40.08
2022-12-16T16:19:45.713Z,38.03
2022-12-16T16:22:34.338Z,40.42
2022-12-16T16:25:22.534Z,37.28
2022-12-16T16:28:09.238Z,43.35
2022-12-16T16:30:55.955Z,46.67
2022-12-16T16:33:42.718Z,47.58
2022-12-16T16:36:33.426Z,50.72
2022-12-16T16:39:20.750Z,48.35
2022-12-16T16:42:07.500Z,51.45
2022-12-16T16:44:54.097Z,47.60
2022-12-16T16:47:40.987Z,59.40
2022-12-16T16:50:32.309Z,46.78
2022-12-16T16:53:18.399Z,48.25
2022-12-16T16:56:04.894Z,47.60
2022-12-16T16:58:53.544Z,48.03
2022-12-16T17:01:39.692Z,50.50
2022-12-16T17:04:26.240Z,51.17
2022-12-16T17:07:12.898Z,45.33
2022-12-16T17:09:59.329Z,56.70
2022-12-16T17:12:48.532Z,48.97
2022-12-16T17:15:39.050Z,50.60
2022-12-16T17:18:26.515Z,48.13
2022-12-16T17:21:13.097Z,50.05
2022-12-16T17:23:59.183Z,53.30
2022-12-16T17:26:45.694Z,53.00
2022-12-16T17:29:41.967Z,54.47
2022-12-16T17:32:29.046Z,53.17
2022-12-16T17:35:15.654Z,51.10
2022-12-16T17:38:02.674Z,51.03
2022-12-16T17:40:49.126Z,52.05
2022-12-16T17:43:36.012Z,56.13
2022-12-16T17:46:25.900Z,48.95
2022-12-16T17:49:16.285Z,52.00
2022-12-16T17:52:03.024Z,60.17
2022-12-16T17:54:49.975Z,55.30
2022-12-16T17:57:36.232Z,53.10
2022-12-16T18:00:23.450Z,53.20
2022-12-16T18:03:09.755Z,52.50
2022-12-16T18:05:56.576Z,63.42
2022-12-16T18:08:43.606Z,55.30
2022-12-16T18:11:29.769Z,53.65
2022-12-16T18:14:16.001Z,60.72
2022-12-16T18:17:02.544Z,63.08
2022-12-16T18:19:49.359Z,53.88
2022-12-16T18:22:35.909Z,56.30
2022-12-16T18:25:22.656Z,57.72
2022-12-16T18:28:09.382Z,60.90
2022-12-16T18:30:55.936Z,61.08
2022-12-16T18:33:43.407Z,62.90
2022-12-16T18:36:29.629Z,62.25
2022-12-16T18:39:15.627Z,54.17
2022-12-16T18:42:07.690Z,59.35
2022-12-16T18:45:00.656Z,62.90
2022-12-16T18:47:47.188Z,59.90
2022-12-16T18:50:37.785Z,63.15
2022-12-16T18:53:25.255Z,63.13
2022-12-16T18:56:19.397Z,66.38
2022-12-16T18:59:06.002Z,67.25
2022-12-16T19:01:52.938Z,54.63
2022-12-16T19:04:39.746Z,52.08
2022-12-16T19:07:26.183Z,56.55
2022-12-16T19:10:13.232Z,52.85
2022-12-16T19:12:59.283Z,63.25
2022-12-16T19:15:45.303Z,47.90
2022-12-16T19:18:32.810Z,65.45
2022-12-16T19:21:19.521Z,52.88
2022-12-16T19:24:07.446Z,56.83
2022-12-16T19:26:56.536Z,58.92
2022-12-16T19:29:43.818Z,57.13
2022-12-16T19:32:31.290Z,60.60
2022-12-16T19:35:17.893Z,57.42
2022-12-16T19:38:04.048Z,51.28
2022-12-16T19:40:51.623Z,53.05
2022-12-16T19:43:40.162Z,45.85
2022-12-16T19:46:26.845Z,52.80
2022-12-16T19:49:12.989Z,58.55
2022-12-16T19:51:59.542Z,57.92
2022-12-16T19:54:46.022Z,53.67
2022-12-16T19:57:32.235Z,51.00
2022-12-16T20:00:18.279Z,48.58
2022-12-16T20:03:04.550Z,56.35
2022-12-16T20:05:51.538Z,55.00
2022-12-16T20:08:38.403Z,57.05
2022-12-16T20:11:26.251Z,52.97
2022-12-16T20:14:14.500Z,51.88
2022-12-16T20:17:01.566Z,54.55
2022-12-16T20:19:48.211Z,56.60
2022-12-16T20:22:34.405Z,57.03
2022-12-16T20:25:21.278Z,54.22
2022-12-16T20:28:07.344Z,54.33
2022-12-16T20:30:53.605Z,51.35
2022-12-16T20:33:42.703Z,54.45
2022-12-16T20:36:29.271Z,47.35
2022-12-16T20:39:15.726Z,46.85
2022-12-16T20:42:02.186Z,52.55
2022-12-16T20:44:48.706Z,47.65
2022-12-16T20:47:34.941Z,49.65
2022-12-16T20:50:21.244Z,48.03
2022-12-16T20:53:07.701Z,44.35
2022-12-16T20:55:56.205Z,55.97
2022-12-16T20:58:42.766Z,53.55
2022-12-16T21:01:29.546Z,52.25
2022-12-16T21:04:15.959Z,48.30
2022-12-16T21:07:02.689Z,46.63
2022-12-16T21:09:49.268Z,39.08
2022-12-16T21:12:35.792Z,46.97
2022-12-16T21:15:22.450Z,41.35
2022-12-16T21:18:08.544Z,41.03
2022-12-16T21:20:56.625Z,44.72
2022-12-16T21:23:42.985Z,36.63
2022-12-16T21:26:29.623Z,40.60
2022-12-16T21:29:16.289Z,49.15
2022-12-16T21:32:03.140Z,39.65
2022-12-16T21:34:50.256Z,36.83
2022-12-16T21:37:36.876Z,36.10
2022-12-16T21:40:24.589Z,33.90
2022-12-16T21:43:10.773Z,40.28
2022-12-16T21:45:57.278Z,33.30
2022-12-16T21:48:43.694Z,34.50
2022-12-16T21:51:30.627Z,30.08
2022-12-16T21:54:17.317Z,30.70
2022-12-16T21:57:04.114Z,30.00
2022-12-16T22:00:10.469Z,36.75
2022-12-16T22:02:59.879Z,37.63
2022-12-16T22:05:59.527Z,32.58
2022-12-16T22:08:46.078Z,33.67
2022-12-16T22:11:33.163Z,37.20
2022-12-16T22:14:19.287Z,39.42
2022-12-16T22:17:06.575Z,37.50
2022-12-16T22:19:53.171Z,46.00
2022-12-16T22:22:47.136Z,41.38
2022-12-16T22:25:33.041Z,41.08
2022-12-16T22:28:19.157Z,51.53
2022-12-16T22:31:15.626Z,49.28
2022-12-16T22:34:03.129Z,62.60
2022-12-16T22:36:49.776Z,53.33
2022-12-16T22:42:43.572Z,63.45
2022-12-16T22:45:29.929Z,59.08
2022-12-16T22:48:16.001Z,59.53
2022-12-16T22:51:02.359Z,77.45
2022-12-16T22:53:48.514Z,74.78
2022-12-16T22:56:35.669Z,73.80
2022-12-16T22:59:22.168Z,78.57
2022-12-16T23:02:08.517Z,71.30
2022-12-16T23:04:55.454Z,81.38
2022-12-16T23:07:43.297Z,76.40
2022-12-16T23:10:30.161Z,73.22
2022-12-16T23:13:16.612Z,68.80
2022-12-16T23:16:04.100Z,80.93
2022-12-16T23:18:50.418Z,78.38
2022-12-16T23:21:37.495Z,80.68
2022-12-16T23:24:24.520Z,81.18
2022-12-16T23:27:11.293Z,70.25
2022-12-16T23:29:57.432Z,75.55
2022-12-16T23:32:44.906Z,76.45
2022-12-16T23:35:31.930Z,68.90
2022-12-16T23:38:20.291Z,81.07
2022-12-16T23:41:06.290Z,62.45
2022-12-16T23:43:52.429Z,69.47
2022-12-16T23:46:39.582Z,72.97
2022-12-16T23:49:25.704Z,73.25
2022-12-16T23:52:12.115Z,77.35
2022-12-16T23:54:58.988Z,62.03
2022-12-16T23:57:45.855Z,74.35
